Time;durP1;ratioP1;P1;durP2;ratioP2;P2;SDS_P1;SDS_P2;PMS_P1;PMS_P2;Temp;Humidity;BMP_temperature;BMP_pressure;BME280_temperature;BME280_humidity;BME280_pressure;Samples;Min_cycle;Max_cycle;Signal;HPM_P1;HPM_P2
2022/08/08 00:00:11;;;;;;;1.52;1.10;;;;;;;24.01;50.19;93870.19;6104852;23;20028;-91
2022/08/08 00:03:02;;;;;;;1.90;1.27;;;;;;;24.01;50.43;93861.91;6100414;23;20079;-91
2022/08/08 00:05:38;;;;;;;1.90;1.30;;;;;;;24.02;50.25;93860.63;6131944;23;20028;-91
2022/08/08 00:08:22;;;;;;;1.38;1.27;;;;;;;24.00;50.38;93858.41;6125761;23;20043;-92
2022/08/08 00:11:05;;;;;;;1.50;1.10;;;;;;;24.00;50.28;93863.19;6178032;23;20109;-90
2022/08/08 00:14:08;;;;;;;1.42;1.10;;;;;;;23.99;50.48;93864.47;6129208;23;20056;-91
2022/08/08 00:17:01;;;;;;;1.30;1.17;;;;;;;24.01;50.22;93851.59;6151739;23;20032;-91
2022/08/08 00:19:48;;;;;;;2.40;1.30;;;;;;;24.00;50.31;93857.66;6127870;23;20028;-92
2022/08/08 00:22:26;;;;;;;1.33;1.23;;;;;;;23.99;50.30;93856.94;6105707;23;20033;-91
2022/08/08 00:24:55;;;;;;;2.00;1.38;;;;;;;23.99;50.33;93856.19;6102903;23;20523;-90
2022/08/08 00:27:20;;;;;;;1.52;1.27;;;;;;;24.01;50.27;93857.13;6104727;23;20388;-91
2022/08/08 00:29:47;;;;;;;1.70;1.17;;;;;;;23.97;50.33;93853.97;6103853;23;20048;-93
2022/08/08 00:32:21;;;;;;;1.45;1.10;;;;;;;23.99;50.47;93850.66;6179944;23;20092;-92
2022/08/08 00:35:12;;;;;;;1.60;1.20;;;;;;;23.98;50.48;93847.16;6118466;23;20096;-92
2022/08/08 00:38:08;;;;;;;1.50;1.00;;;;;;;23.98;50.43;93846.41;6118882;23;20031;-90
2022/08/08 00:40:37;;;;;;;1.77;1.38;;;;;;;23.98;50.37;93838.88;6142606;23;20025;-92
2022/08/08 00:43:34;;;;;;;1.48;1.17;;;;;;;23.98;50.25;93843.66;6122415;23;20018;-92
2022/08/08 00:46:21;;;;;;;1.50;1.10;;;;;;;23.98;50.32;93843.66;6119152;23;20437;-92
2022/08/08 00:49:14;;;;;;;1.42;1.10;;;;;;;23.97;50.45;93851.19;6142655;23;20101;-92
2022/08/08 00:51:58;;;;;;;1.50;1.33;;;;;;;23.97;50.37;93848.44;6142162;23;20029;-91
2022/08/08 00:54:36;;;;;;;1.65;1.40;;;;;;;23.95;50.42;93842.69;6141370;23;20041;-91
2022/08/08 00:57:23;;;;;;;1.45;1.10;;;;;;;23.96;50.21;93846.22;6142680;23;20010;-94
2022/08/08 01:00:22;;;;;;;1.35;1.20;;;;;;;23.96;50.36;93851.72;6098857;23;20037;-90
2022/08/08 01:03:25;;;;;;;1.95;1.30;;;;;;;23.96;50.38;93851.72;6115559;23;20077;-90
2022/08/08 01:06:09;;;;;;;1.60;1.00;;;;;;;23.99;50.26;93850.66;6143381;23;20108;-91
2022/08/08 01:08:40;;;;;;;1.23;1.10;;;;;;;23.96;50.33;93854.50;6140071;23;20097;-92
2022/08/08 01:11:43;;;;;;;1.83;1.20;;;;;;;23.96;50.25;93854.50;6145196;23;20017;-91
2022/08/08 01:14:27;;;;;;;2.10;1.20;;;;;;;23.95;50.53;93851.00;6121897;23;20025;-91
2022/08/08 01:17:22;;;;;;;1.95;1.30;;;;;;;23.94;50.38;93849.50;6119917;23;20014;-90
2022/08/08 01:20:03;;;;;;;1.20;1.02;;;;;;;23.96;50.47;93854.50;6095521;23;20033;-94
2022/08/08 01:22:47;;;;;;;;;;;;;;;23.96;50.37;93858.00;6140451;23;20064;-92
2022/08/08 01:25:15;;;;;;;1.13;1.00;;;;;;;23.95;50.31;93841.97;6116505;23;19920;-91
2022/08/08 01:27:54;;;;;;;1.25;1.08;;;;;;;23.94;50.51;93846.75;6145199;23;20025;-90
2022/08/08 01:30:19;;;;;;;1.33;1.20;;;;;;;23.92;50.39;93849.28;6095457;23;20041;-91
2022/08/08 01:33:05;;;;;;;1.33;1.05;;;;;;;23.92;50.29;93852.06;6142590;23;20026;-90
2022/08/08 01:35:56;;;;;;;1.15;0.98;;;;;;;23.91;50.45;93851.31;6088295;23;20018;-91
2022/08/08 01:38:31;;;;;;;1.08;0.98;;;;;;;23.93;50.35;93853.53;6085686;23;20014;-91
2022/08/08 01:41:15;;;;;;;1.58;1.20;;;;;;;23.91;50.40;93840.28;6061513;23;20550;-93
2022/08/08 01:44:15;;;;;;;1.20;1.10;;;;;;;23.91;50.53;93850.56;6063127;23;20030;-90
2022/08/08 01:46:40;;;;;;;0.77;0.77;;;;;;;23.92;50.38;93843.78;6063864;23;20044;-91
2022/08/08 01:49:15;;;;;;;1.77;1.30;;;;;;;23.91;50.28;93842.28;6063956;23;20018;-91
2022/08/08 01:51:55;;;;;;;1.48;1.20;;;;;;;23.92;50.43;93838.25;6053011;23;20018;-90
2022/08/08 01:54:23;;;;;;;1.35;1.25;;;;;;;23.92;50.11;93841.00;6064812;23;20018;-92
2022/08/08 01:56:51;;;;;;;1.05;0.95;;;;;;;23.93;50.52;93850.78;6062603;23;20133;-92
2022/08/08 01:59:35;;;;;;;0.98;0.90;;;;;;;23.91;50.45;93848.56;6064363;23;20765;-90
2022/08/08 02:02:21;;;;;;;1.45;1.10;;;;;;;23.92;50.49;93835.50;6076134;23;20416;-92
2022/08/08 02:05:00;;;;;;;1.13;0.95;;;;;;;23.90;50.36;93838.03;6079897;23;20030;-92
2022/08/08 02:07:50;;;;;;;1.58;1.15;;;;;;;23.89;50.44;93840.06;6149109;23;20026;-91
2022/08/08 02:10:22;;;;;;;1.00;0.88;;;;;;;23.90;50.36;93836.03;6139088;23;20401;-92
2022/08/08 02:12:52;;;;;;;1.17;1.00;;;;;;;23.91;50.41;93834.75;6158959;23;20040;-92
2022/08/08 02:15:32;;;;;;;1.17;1.08;;;;;;;23.90;50.29;93838.03;6124917;23;20025;-92
2022/08/08 02:18:00;;;;;;;;;;;;;;;23.91;50.45;93832.00;6097048;23;20017;-91
2022/08/08 02:20:41;;;;;;;1.23;1.10;;;;;;;23.89;50.35;93831.03;6121685;23;19920;-92
2022/08/08 02:23:34;;;;;;;1.20;1.10;;;;;;;23.88;50.45;93832.31;6091338;23;20097;-91
2022/08/08 02:26:07;;;;;;;1.88;1.00;;;;;;;23.89;50.37;93829.03;6121679;23;20359;-91
2022/08/08 02:28:51;;;;;;;1.33;1.00;;;;;;;23.88;50.42;93843.38;6097082;23;20311;-91
2022/08/08 02:31:53;;;;;;;1.40;1.10;;;;;;;23.87;50.43;93828.81;6142443;23;20532;-91
2022/08/08 02:34:23;;;;;;;1.20;1.00;;;;;;;23.87;50.30;93831.56;6122964;23;20279;-90
2022/08/08 02:36:59;;;;;;;1.85;1.05;;;;;;;23.88;50.43;93835.06;6153623;23;20105;-90
2022/08/08 02:39:50;;;;;;;1.40;1.10;;;;;;;23.86;50.33;93832.84;6111957;23;20021;-91
2022/08/08 02:42:20;;;;;;;1.40;1.13;;;;;;;23.88;50.43;93841.34;6152552;23;20019;-92
2022/08/08 02:45:16;;;;;;;1.42;1.10;;;;;;;23.89;50.38;93833.81;6151515;23;20024;-92
2022/08/08 02:48:09;;;;;;;2.05;1.55;;;;;;;23.87;50.48;93841.88;6157754;23;20108;-91
2022/08/08 02:50:50;;;;;;;1.02;0.95;;;;;;;23.87;50.36;93844.63;6105120;23;20035;-93
2022/08/08 02:53:34;;;;;;;1.75;1.35;;;;;;;23.87;50.39;93842.63;6174475;23;20104;-92
2022/08/08 02:56:30;;;;;;;1.40;1.13;;;;;;;23.87;50.38;93850.91;6174587;23;20025;-92
2022/08/08 02:59:08;;;;;;;1.25;1.15;;;;;;;23.86;50.44;93846.66;6164234;23;20051;-91
2022/08/08 03:01:55;;;;;;;1.42;1.10;;;;;;;23.87;50.43;93853.66;6178643;23;20017;-90
2022/08/08 03:04:51;;;;;;;1.42;1.33;;;;;;;23.86;50.41;93852.19;6126995;23;20017;-90
2022/08/08 03:07:26;;;;;;;1.52;1.38;;;;;;;23.85;50.48;93856.22;6175988;23;20017;-91
2022/08/08 03:10:06;;;;;;;1.10;1.00;;;;;;;23.86;50.39;93854.19;6169010;23;20023;-91
2022/08/08 03:12:42;;;;;;;1.30;1.00;;;;;;;23.84;50.52;93848.47;6177950;23;20016;-90
2022/08/08 03:15:15;;;;;;;1.27;1.05;;;;;;;23.86;50.29;93852.19;6123697;23;20456;-90
2022/08/08 03:17:52;;;;;;;1.10;1.00;;;;;;;23.83;50.43;93847.72;6130327;23;20036;-91
2022/08/08 03:20:18;;;;;;;1.13;1.00;;;;;;;23.86;50.26;93854.19;6127650;23;20028;-92
2022/08/08 03:22:48;;;;;;;1.40;1.30;;;;;;;23.83;50.53;93861.53;6177667;23;20056;-91
2022/08/08 03:25:15;;;;;;;1.10;1.00;;;;;;;23.84;50.16;93854.72;6104009;23;20045;-91
2022/08/08 03:27:44;;;;;;;1.30;1.10;;;;;;;23.84;50.01;93856.75;6128211;23;20396;-91
2022/08/08 03:30:11;;;;;;;1.13;1.00;;;;;;;23.86;50.25;93848.69;6105659;23;20021;-91
2022/08/08 03:35:22;;;;;;;1.05;0.90;;;;;;;23.85;50.26;93853.44;6093283;23;20029;-90
2022/08/08 03:37:47;;;;;;;1.20;1.10;;;;;;;23.84;50.08;93848.47;6114338;23;20020;-90
2022/08/08 03:40:13;;;;;;;1.50;1.15;;;;;;;23.83;50.31;93858.75;6097597;23;20013;-92
2022/08/08 03:42:38;;;;;;;1.58;1.00;;;;;;;23.88;50.13;93862.69;6109463;23;20013;-91
2022/08/08 03:45:14;;;;;;;1.25;1.02;;;;;;;23.85;50.39;93858.22;6064643;23;20365;-90
2022/08/08 03:47:39;;;;;;;1.40;1.10;;;;;;;23.86;50.26;93851.44;6126924;23;20018;-91
2022/08/08 03:50:14;;;;;;;1.52;1.42;;;;;;;23.83;50.12;93850.47;6094072;23;20020;-90
2022/08/08 03:52:39;;;;;;;1.70;1.40;;;;;;;23.83;50.20;93863.53;6100833;23;20029;-90
2022/08/08 03:55:12;;;;;;;1.48;1.00;;;;;;;23.81;50.58;93855.81;6092014;23;20469;-90
2022/08/08 03:57:43;;;;;;;1.58;1.20;;;;;;;23.83;50.37;93864.28;6101379;23;20021;-92
2022/08/08 04:00:11;;;;;;;1.40;1.30;;;;;;;23.86;50.28;93862.47;6097839;23;20018;-91
2022/08/08 04:02:40;;;;;;;1.48;1.10;;;;;;;23.84;50.34;93860.25;6102684;23;20032;-92
2022/08/08 04:05:06;;;;;;;3.22;1.27;;;;;;;23.83;50.28;93866.31;6072885;23;20018;-91
2022/08/08 04:07:38;;;;;;;2.88;1.20;;;;;;;23.80;49.90;93862.63;6072966;23;20104;-92
2022/08/08 04:10:05;;;;;;;2.33;1.60;;;;;;;23.83;50.07;93866.31;6101824;23;20366;-91
2022/08/08 04:12:30;;;;;;;2.13;1.25;;;;;;;23.80;49.94;93872.94;6098568;23;20017;-92
2022/08/08 04:14:57;;;;;;;1.95;1.35;;;;;;;23.83;50.02;93861.53;6088424;23;20029;-91
2022/08/08 04:17:22;;;;;;;1.65;1.25;;;;;;;23.82;50.10;93865.56;6121748;23;20021;-91
2022/08/08 04:19:47;;;;;;;3.35;1.30;;;;;;;23.84;49.96;93867.78;6105103;23;20072;-92
2022/08/08 04:22:13;;;;;;;1.58;1.23;;;;;;;23.80;49.99;93873.66;6102356;23;20064;-92
2022/08/08 04:24:38;;;;;;;18.73;16.02;;;;;;;23.86;50.06;93870.75;6119463;23;20010;-91
2022/08/08 04:27:05;;;;;;;15.70;13.80;;;;;;;23.84;49.85;93868.53;6117246;23;20076;-93
2022/08/08 04:29:30;;;;;;;13.95;7.45;;;;;;;23.83;50.39;93869.81;6103183;23;20063;-91
2022/08/08 04:31:56;;;;;;;23.52;8.27;;;;;;;23.79;48.80;93868.69;6046448;23;20070;-91
2022/08/08 04:34:21;;;;;;;102.18;13.27;;;;;;;23.77;48.85;93874.00;6044847;23;20029;-91
2022/08/08 04:36:47;;;;;;;55.30;10.32;;;;;;;23.72;48.85;93877.59;6093758;23;20052;-93
2022/08/08 04:39:12;;;;;;;59.67;15.82;;;;;;;23.65;48.61;93881.00;6040575;23;20059;-93
2022/08/08 04:41:38;;;;;;;29.65;7.22;;;;;;;23.61;48.93;93881.34;6049586;23;20014;-89
2022/08/08 04:44:04;;;;;;;77.75;48.10;;;;;;;23.67;48.19;93883.97;6095982;23;20018;-93
2022/08/08 04:46:29;;;;;;;36.45;14.07;;;;;;;23.55;48.46;93887.00;6048523;23;20026;-92
2022/08/08 04:48:55;;;;;;;21.80;9.88;;;;;;;23.37;48.01;93887.84;6043261;23;20026;-91
2022/08/08 04:51:23;;;;;;;20.23;7.45;;;;;;;23.39;48.19;93882.50;6056497;23;20025;-92
2022/08/08 04:57:11;;;;;;;16.25;6.38;;;;;;;23.41;47.50;93893.00;6140672;23;20098;-92
2022/08/08 05:00:06;;;;;;;11.05;5.80;;;;;;;23.28;47.79;93877.22;6147750;23;20005;-92
2022/08/08 05:05:36;;;;;;;9.65;4.63;;;;;;;23.23;46.91;93883.59;6159097;23;20032;-91
2022/08/08 05:08:04;;;;;;;13.02;5.88;;;;;;;22.88;46.19;93884.75;6134264;23;20018;-92
2022/08/08 05:10:30;;;;;;;9.40;4.55;;;;;;;22.63;46.03;93895.19;6099952;23;20108;-92
2022/08/08 05:12:57;;;;;;;19.90;4.85;;;;;;;22.57;46.14;93894.53;6059646;23;20013;-92
2022/08/08 05:15:23;;;;;;;10.10;4.55;;;;;;;22.52;46.26;93904.38;5984172;23;20394;-91
2022/08/08 05:17:51;;;;;;;15.40;4.82;;;;;;;22.35;46.74;93898.41;5944121;23;20171;-92
2022/08/08 05:20:19;;;;;;;20.15;6.35;;;;;;;22.41;46.56;93896.31;5986338;23;20147;-94
2022/08/08 05:22:45;;;;;;;5.47;3.38;;;;;;;22.30;46.34;93904.72;5961844;23;20030;-93
2022/08/08 05:25:11;;;;;;;5.00;3.33;;;;;;;22.10;46.83;93906.03;5947399;23;20019;-91
2022/08/08 05:27:39;;;;;;;12.60;4.05;;;;;;;22.11;46.85;93909.53;5957559;23;20038;-91
2022/08/08 05:30:09;;;;;;;9.52;5.32;;;;;;;22.07;46.73;93911.88;5905901;23;20020;-93
2022/08/08 05:32:36;;;;;;;19.83;5.68;;;;;;;22.06;46.92;93916.63;5925045;24;20015;-92
2022/08/08 05:35:14;;;;;;;13.25;5.90;;;;;;;22.05;47.23;93917.88;5937774;23;20034;-91
2022/08/08 05:37:46;;;;;;;10.68;4.97;;;;;;;21.85;47.69;93923.91;6075014;23;20086;-92
2022/08/08 05:40:39;;;;;;;10.63;4.57;;;;;;;21.77;47.75;93928.50;6135204;23;20044;-93
2022/08/08 05:46:01;;;;;;;60.83;24.23;;;;;;;21.79;47.71;93929.47;6148167;23;20022;-93
2022/08/08 05:49:06;;;;;;;38.28;12.25;;;;;;;21.75;47.91;93939.28;6114027;23;20054;31
2022/08/08 05:51:32;;;;;;;34.63;15.88;;;;;;;21.56;48.36;93939.28;6123676;23;20022;-91
2022/08/08 05:54:16;;;;;;;47.28;24.15;;;;;;;21.53;48.62;93941.06;6105059;23;20019;-93
2022/08/08 05:56:46;;;;;;;39.22;20.05;;;;;;;21.47;48.47;93942.38;6080617;23;20129;-92
2022/08/08 05:59:37;;;;;;;27.75;12.30;;;;;;;21.47;48.50;93937.63;6090320;23;20481;-91
2022/08/08 06:05:11;;;;;;;17.63;6.15;;;;;;;21.43;48.84;93953.69;6069346;23;20055;-92
2022/08/08 06:07:38;;;;;;;10.40;5.63;;;;;;;21.45;48.76;93951.13;6076696;23;20461;-91
2022/08/08 06:10:44;;;;;;;11.18;4.53;;;;;;;21.52;49.29;93949.81;6030439;23;20063;-93
2022/08/08 06:13:09;;;;;;;4.75;3.25;;;;;;;21.38;49.31;93949.00;6062407;23;20028;-94
2022/08/08 06:15:37;;;;;;;14.05;8.23;;;;;;;21.39;49.52;93955.97;6043057;23;20018;-92
2022/08/08 06:18:04;;;;;;;13.23;8.80;;;;;;;21.42;49.64;93954.22;6019538;23;20074;-93
2022/08/08 06:20:32;;;;;;;6.82;4.13;;;;;;;21.27;49.80;93959.34;6038618;23;20055;-91
2022/08/08 06:23:08;;;;;;;4.38;3.97;;;;;;;21.23;50.14;93959.63;6010995;23;20023;-91
2022/08/08 06:25:48;;;;;;;9.30;4.13;;;;;;;21.43;49.45;93961.94;5981422;23;20039;-93
2022/08/08 06:28:18;;;;;;;30.60;18.70;;;;;;;21.39;49.15;93958.72;6108894;23;20069;-93
2022/08/08 06:30:43;;;;;;;23.48;10.07;;;;;;;21.21;49.43;93953.94;6109304;23;20093;-93
2022/08/08 06:33:10;;;;;;;13.75;7.18;;;;;;;21.16;49.45;93965.69;6043833;23;20029;-92
2022/08/08 06:35:38;;;;;;;12.77;6.90;;;;;;;21.15;49.67;93967.69;6065760;23;20046;-92
2022/08/08 06:38:05;;;;;;;9.30;4.90;;;;;;;21.07;50.23;93972.28;6022294;23;20045;-93
2022/08/08 06:41:14;;;;;;;15.90;5.13;;;;;;;21.15;50.02;93953.22;6050606;23;20018;-93
2022/08/08 06:43:41;;;;;;;11.88;4.93;;;;;;;21.18;50.03;93963.19;6112141;23;20033;-92
2022/08/08 06:46:06;;;;;;;10.45;5.53;;;;;;;21.17;49.81;93962.44;6111221;23;20025;-89
2022/08/08 06:48:37;;;;;;;18.83;5.93;;;;;;;21.13;50.09;93961.97;6161226;23;20013;-93
2022/08/08 06:51:06;;;;;;;8.98;5.00;;;;;;;21.16;50.04;93968.44;6128620;23;20558;-91
2022/08/08 06:53:31;;;;;;;23.05;13.93;;;;;;;21.28;49.64;93966.34;6131238;23;20025;-89
2022/08/08 06:55:57;;;;;;;7.32;4.70;;;;;;;21.07;50.09;93972.28;6110179;23;20029;-92
2022/08/08 06:58:24;;;;;;;8.38;3.65;;;;;;;21.10;50.08;93967.75;6107064;23;20049;-90
2022/08/08 07:00:54;;;;;;;9.13;3.78;;;;;;;20.95;50.42;93965.41;6113555;23;20017;-91
2022/08/08 07:03:31;;;;;;;7.03;3.22;;;;;;;20.81;51.43;93972.75;6101241;23;20021;-92
2022/08/08 07:05:58;;;;;;;5.47;2.90;;;;;;;20.74;51.29;93973.34;6123252;23;20028;-90
2022/08/08 07:08:28;;;;;;;6.05;3.63;;;;;;;20.55;51.78;93974.50;6113384;23;20017;-93
2022/08/08 07:10:56;;;;;;;3.47;3.00;;;;;;;20.55;51.81;93975.25;6105333;23;20017;-94
2022/08/08 07:13:27;;;;;;;9.00;3.20;;;;;;;20.44;52.15;93972.56;6132335;23;20052;-92
2022/08/08 07:15:59;;;;;;;12.05;3.72;;;;;;;20.56;51.96;93967.75;6134725;23;20113;-93
2022/08/08 07:18:37;;;;;;;4.18;3.15;;;;;;;20.76;50.93;93970.06;6134176;23;20001;-93
2022/08/08 07:21:03;;;;;;;14.13;3.22;;;;;;;20.77;50.86;93966.81;6181847;23;20021;-91
2022/08/08 07:23:35;;;;;;;3.05;2.83;;;;;;;20.79;51.11;93974.53;6117461;23;20043;-93
2022/08/08 07:26:21;;;;;;;4.55;3.00;;;;;;;20.81;50.82;93983.00;6124783;23;20022;-93
2022/08/08 07:28:48;;;;;;;4.85;3.40;;;;;;;20.87;50.44;93984.44;6065053;23;20018;-92
2022/08/08 07:31:22;;;;;;;7.57;3.55;;;;;;;20.80;50.52;93987.75;6012822;23;20020;-93
2022/08/08 07:33:48;;;;;;;5.95;3.53;;;;;;;20.76;50.85;93984.56;6004835;23;20015;-92
2022/08/08 07:36:15;;;;;;;7.32;3.50;;;;;;;20.80;51.01;93992.50;5986834;23;20141;-92
2022/08/08 07:38:52;;;;;;;6.32;3.92;;;;;;;20.74;51.25;93994.56;6022627;23;20023;-93
2022/08/08 07:41:18;;;;;;;6.15;3.60;;;;;;;20.67;51.50;94003.38;6026390;23;20019;-93
2022/08/08 07:43:45;;;;;;;11.57;3.78;;;;;;;20.73;51.68;93996.56;6034029;23;20019;-92
2022/08/08 07:46:12;;;;;;;7.07;3.85;;;;;;;20.64;51.03;93998.88;5999202;23;20019;-93
2022/08/08 07:48:44;;;;;;;11.55;3.92;;;;;;;20.61;51.37;94000.66;6035665;23;20047;-92
2022/08/08 07:51:13;;;;;;;4.82;3.40;;;;;;;20.68;51.32;93991.13;5998467;23;20020;-91
2022/08/08 07:53:43;;;;;;;7.80;4.43;;;;;;;20.72;51.21;94002.56;5990286;23;20039;-92
2022/08/08 07:56:09;;;;;;;11.25;3.75;;;;;;;20.73;50.65;94004.06;5994884;23;20682;-92
2022/08/08 07:58:38;;;;;;;9.63;3.83;;;;;;;20.81;50.96;94008.47;6053893;23;20015;-93
2022/08/08 08:01:06;;;;;;;8.20;3.80;;;;;;;20.86;50.88;94009.69;6098240;23;20022;-91
2022/08/08 08:03:47;;;;;;;6.72;3.80;;;;;;;20.76;50.83;93998.31;6077007;23;20100;-90
2022/08/08 08:06:13;;;;;;;7.05;3.67;;;;;;;20.77;50.92;94010.78;6124700;23;20481;-89
2022/08/08 08:08:41;;;;;;;10.98;3.72;;;;;;;20.76;51.05;94014.78;6096205;23;20098;-91
2022/08/08 08:11:11;;;;;;;11.30;6.50;;;;;;;20.84;50.53;94007.47;6076945;23;20049;-89
2022/08/08 08:13:55;;;;;;;16.67;6.70;;;;;;;20.87;50.37;94011.19;6076713;23;20511;-90
2022/08/08 08:16:22;;;;;;;19.38;7.03;;;;;;;20.88;50.08;94016.19;6075454;23;20030;-93
2022/08/08 08:18:52;;;;;;;12.27;5.78;;;;;;;20.98;49.73;94011.09;6108101;23;20108;-90
2022/08/08 08:21:18;;;;;;;9.57;5.25;;;;;;;20.86;49.94;94018.69;6101336;23;20023;-91
2022/08/08 08:23:43;;;;;;;19.60;4.57;;;;;;;20.87;50.04;94019.44;6107215;23;20021;-91
2022/08/08 08:26:10;;;;;;;6.05;3.88;;;;;;;20.85;49.46;94010.94;6127315;23;20469;-90
2022/08/08 08:28:37;;;;;;;6.60;3.97;;;;;;;20.99;48.78;94020.09;6105934;23;20022;-88
2022/08/08 08:31:05;;;;;;;10.15;3.80;;;;;;;20.99;48.80;94011.84;6149778;23;20083;-91
2022/08/08 08:33:31;;;;;;;11.52;3.33;;;;;;;20.98;49.12;94015.84;6107014;23;20117;-90
2022/08/08 08:35:57;;;;;;;9.43;3.20;;;;;;;20.86;47.65;94004.94;6132506;23;20067;-89
2022/08/08 08:38:23;;;;;;;5.80;2.53;;;;;;;20.58;47.72;94009.16;6130768;23;20025;-90
2022/08/08 08:40:48;;;;;;;7.60;2.92;;;;;;;20.58;48.73;94011.91;6123926;23;20084;-90
2022/08/08 08:43:16;;;;;;;6.43;3.05;;;;;;;20.59;49.22;94014.16;6106236;23;20104;-92
2022/08/08 08:45:44;;;;;;;7.10;2.60;;;;;;;20.62;48.65;94009.63;6089412;23;20077;-89
2022/08/08 08:48:09;;;;;;;4.57;2.33;;;;;;;20.84;49.43;94012.97;6134350;23;20028;-89
2022/08/08 08:50:36;;;;;;;6.57;2.95;;;;;;;20.92;45.99;94012.41;6132774;23;20017;-93
2022/08/08 08:53:04;;;;;;;5.28;2.60;;;;;;;20.91;45.56;94013.66;6110414;23;20021;-91
2022/08/08 08:55:29;;;;;;;5.72;3.80;;;;;;;20.93;45.77;94009.16;6134765;23;20579;-89
2022/08/08 08:57:55;;;;;;;6.90;3.10;;;;;;;20.99;45.39;94018.09;6133848;23;20013;-90
2022/08/08 09:00:20;;;;;;;11.90;4.88;;;;;;;21.00;46.42;94010.59;6135344;23;20024;-89
2022/08/08 09:02:46;;;;;;;8.35;5.45;;;;;;;21.12;46.39;94017.47;6133774;23;20009;-90
2022/08/08 09:05:33;;;;;;;9.07;3.67;;;;;;;21.15;46.11;94013.69;6087004;23;20023;-90
2022/08/08 09:07:59;;;;;;;6.03;3.65;;;;;;;21.17;46.42;94017.44;6055462;23;20029;-90
2022/08/08 09:10:24;;;;;;;10.77;3.13;;;;;;;21.17;46.20;94019.44;6044395;23;20018;-91
2022/08/08 09:12:50;;;;;;;7.25;3.30;;;;;;;21.08;46.58;94031.50;6019040;23;20450;-91
2022/08/08 09:15:15;;;;;;;7.53;3.33;;;;;;;20.99;46.52;94023.59;6019793;23;20022;-90
2022/08/08 09:17:42;;;;;;;6.95;3.35;;;;;;;21.10;46.14;94017.97;6017599;23;20158;-89
2022/08/08 09:20:08;;;;;;;5.03;2.95;;;;;;;20.91;46.75;94014.41;6043224;23;20042;-89
2022/08/08 09:22:34;;;;;;;6.85;3.10;;;;;;;21.01;46.12;94025.81;6016097;23;20021;-90
2022/08/08 09:24:59;;;;;;;6.68;3.10;;;;;;;21.15;45.54;94022.69;6023313;23;20014;-89
2022/08/08 09:27:25;;;;;;;4.15;3.15;;;;;;;21.27;45.93;94017.84;6032319;23;20018;-91
2022/08/08 09:29:52;;;;;;;7.20;3.38;;;;;;;21.28;46.21;94015.84;6040484;23;20054;-92
2022/08/08 09:32:39;;;;;;;5.60;3.50;;;;;;;21.16;46.82;94009.69;6025292;23;20049;-92
2022/08/08 09:35:09;;;;;;;9.80;4.78;;;;;;;21.16;47.24;94015.19;6068708;23;20018;-92
2022/08/08 09:37:53;;;;;;;8.63;2.80;;;;;;;21.26;46.06;94010.84;6019333;23;20027;-91
2022/08/08 09:40:20;;;;;;;7.80;2.55;;;;;;;21.23;46.18;94006.38;6092570;23;20010;-91
2022/08/08 09:43:07;;;;;;;5.82;2.42;;;;;;;21.20;45.97;94010.94;6132469;23;20102;-91
2022/08/08 09:45:58;;;;;;;8.15;2.65;;;;;;;21.23;45.23;94011.88;6131284;23;20024;-92
2022/08/08 09:48:24;;;;;;;12.15;3.33;;;;;;;21.28;45.05;94021.34;6135557;23;20425;-92
2022/08/08 09:50:49;;;;;;;8.25;3.85;;;;;;;21.27;45.11;94017.84;6105882;23;20054;-90
2022/08/08 09:53:18;;;;;;;4.40;2.88;;;;;;;21.26;45.27;94015.59;6101548;23;20041;-93
2022/08/08 09:55:45;;;;;;;6.85;2.83;;;;;;;21.30;44.99;94014.06;6123650;23;20021;-95
2022/08/08 09:58:15;;;;;;;9.90;3.00;;;;;;;21.18;44.95;94012.69;6122202;23;20013;-92
2022/08/08 10:00:40;;;;;;;12.65;5.53;;;;;;;21.23;44.05;94016.63;6124277;23;20021;-93
2022/08/08 10:03:08;;;;;;;10.55;3.08;;;;;;;21.27;44.13;94011.59;6087301;23;20052;-92
2022/08/08 10:05:42;;;;;;;8.27;2.63;;;;;;;21.29;44.57;94012.59;6086288;23;20537;-91
2022/08/08 10:08:36;;;;;;;13.23;3.10;;;;;;;21.33;44.60;94012.31;6155801;23;20009;-92
2022/08/08 10:11:45;;;;;;;5.53;2.38;;;;;;;21.29;44.31;94007.06;6036256;23;20019;-93
2022/08/08 10:14:33;;;;;;;7.72;2.67;;;;;;;21.36;44.27;94006.53;6019314;23;20025;-92
2022/08/08 10:17:36;;;;;;;4.45;2.47;;;;;;;21.41;44.81;94002.22;6039045;23;20097;-91
2022/08/08 10:20:12;;;;;;;3.33;2.40;;;;;;;21.43;44.69;94000.44;6096573;23;20014;-91
2022/08/08 10:22:50;;;;;;;2.58;1.50;;;;;;;21.42;44.26;94009.97;6035113;23;20089;-94
2022/08/08 10:25:20;;;;;;;6.20;1.77;;;;;;;21.35;43.63;94004.28;6047319;23;20521;-93
2022/08/08 10:27:52;;;;;;;2.70;1.75;;;;;;;21.25;44.20;94005.88;6036216;23;20014;-92
2022/08/08 10:30:17;;;;;;;2.28;1.85;;;;;;;21.30;44.30;94008.56;6048136;23;20045;-89
2022/08/08 10:32:53;;;;;;;1.88;1.73;;;;;;;21.34;44.34;94008.28;6067560;23;20021;-90
2022/08/08 10:35:22;;;;;;;8.38;2.20;;;;;;;21.34;45.07;94005.53;6072012;23;20096;-90
2022/08/08 10:37:57;;;;;;;2.42;1.80;;;;;;;21.43;44.68;93999.69;6059931;23;20023;-91
2022/08/08 10:40:24;;;;;;;4.43;1.75;;;;;;;21.44;44.26;93998.41;6009809;23;20019;-91
2022/08/08 10:42:54;;;;;;;2.00;1.70;;;;;;;21.48;43.61;94005.13;5985398;23;20074;-92
2022/08/08 10:45:19;;;;;;;2.83;1.50;;;;;;;21.43;44.59;93999.69;6047651;23;20024;-91
2022/08/08 10:47:51;;;;;;;3.65;1.40;;;;;;;21.24;44.75;93998.88;6044462;23;20014;-91
2022/08/08 10:50:17;;;;;;;4.28;2.00;;;;;;;21.29;45.08;94001.56;6046325;23;20037;-93
2022/08/08 10:52:42;;;;;;;3.03;1.73;;;;;;;21.24;45.42;94004.38;6063697;23;20692;-89
2022/08/08 10:55:14;;;;;;;5.00;2.00;;;;;;;21.20;45.71;93999.19;6061908;23;20060;-90
2022/08/08 10:57:55;;;;;;;3.05;2.20;;;;;;;21.23;44.69;94000.88;6057082;23;20150;-91
2022/08/08 11:00:48;;;;;;;2.97;1.90;;;;;;;21.33;44.36;93999.28;6034662;23;20089;-93
2022/08/08 11:04:02;;;;;;;3.97;1.95;;;;;;;21.47;44.13;93991.88;6020035;23;20029;-92
2022/08/08 11:06:32;;;;;;;5.53;2.85;;;;;;;21.44;44.60;94001.91;5984663;23;20019;-91
2022/08/08 11:09:02;;;;;;;4.30;2.80;;;;;;;21.45;43.32;93997.91;5981907;23;20025;-91
2022/08/08 11:11:36;;;;;;;14.75;3.30;;;;;;;21.35;43.28;93998.78;5954251;23;20011;-92
2022/08/08 11:14:02;;;;;;;8.43;3.45;;;;;;;21.36;43.38;93998.25;5986608;23;20027;-93
2022/08/08 11:16:27;;;;;;;6.38;3.55;;;;;;;21.39;42.96;93991.75;5984290;23;20086;-93
2022/08/08 11:18:53;;;;;;;15.77;7.15;;;;;;;21.46;42.81;93982.88;5983029;23;20027;-92
2022/08/08 11:21:20;;;;;;;28.33;13.40;;;;;;;21.50;42.59;93983.34;5965008;23;20015;-91
2022/08/08 11:23:45;;;;;;;36.45;19.40;;;;;;;21.59;43.58;93992.53;5984644;23;20019;-92
2022/08/08 11:26:18;;;;;;;40.97;19.63;;;;;;;21.66;42.94;93991.91;5945827;23;20034;-93
2022/08/08 11:28:44;;;;;;;29.20;15.27;;;;;;;21.75;41.70;93984.06;6033665;23;20020;-87
2022/08/08 11:31:14;;;;;;;40.05;23.42;;;;;;;21.77;42.14;93980.78;5973616;23;20027;-92
2022/08/08 11:33:40;;;;;;;37.80;17.05;;;;;;;21.71;41.90;93989.09;5983327;23;20094;-93
2022/08/08 11:36:10;;;;;;;30.60;15.73;;;;;;;21.71;42.00;93991.13;5997957;23;20388;-91
2022/08/08 11:38:36;;;;;;;52.67;28.65;;;;;;;21.75;42.64;93986.06;5968866;23;20019;-92
2022/08/08 11:41:07;;;;;;;34.90;18.65;;;;;;;21.76;42.03;93976.56;5978480;23;20065;-91
2022/08/08 11:43:34;;;;;;;55.78;27.20;;;;;;;21.71;42.47;93985.63;6037624;23;20022;-91
2022/08/08 11:45:59;;;;;;;22.67;12.43;;;;;;;21.77;43.27;93983.53;6073933;23;20496;-92
2022/08/08 11:48:25;;;;;;;29.45;14.18;;;;;;;21.53;42.32;93982.31;6072581;23;20010;-91
2022/08/08 11:50:51;;;;;;;30.80;13.88;;;;;;;21.50;42.23;93988.09;6072481;23;20017;-92
2022/08/08 11:53:16;;;;;;;28.67;11.10;;;;;;;21.48;42.34;93972.13;6068616;23;20085;-92
2022/08/08 11:55:52;;;;;;;13.57;7.13;;;;;;;21.56;43.00;93977.78;6049735;23;20052;-90
2022/08/08 11:58:17;;;;;;;24.98;11.45;;;;;;;21.64;42.83;93972.47;5994617;23;20365;-92
2022/08/08 12:00:47;;;;;;;21.77;8.68;;;;;;;21.76;42.19;93979.31;6055690;23;20015;-92
2022/08/08 12:03:21;;;;;;;9.93;5.50;;;;;;;21.83;42.06;93984.22;6097622;23;20022;-91
2022/08/08 12:05:47;;;;;;;12.20;4.93;;;;;;;21.85;41.00;93974.19;6071861;23;20324;-92
2022/08/08 12:08:14;;;;;;;14.77;7.10;;;;;;;21.74;41.23;93979.81;6074448;23;20022;-92
2022/08/08 12:10:47;;;;;;;11.43;4.35;;;;;;;21.76;42.14;93980.06;6083640;23;20020;-91
2022/08/08 12:13:14;;;;;;;10.18;4.60;;;;;;;21.81;41.31;93976.50;6044104;23;20022;-91
2022/08/08 12:15:46;;;;;;;7.57;3.95;;;;;;;21.81;41.81;93973.00;6051864;23;20022;-91